Time;durP1;ratioP1;P1;durP2;ratioP2;P2;SDS_P1;SDS_P2;PMS_P1;PMS_P2;Temp;Humidity;BMP_temperature;BMP_pressure;BME280_temperature;BME280_humidity;BME280_pressure;Samples;Min_cycle;Max_cycle;Signal;HPM_P1;HPM_P2
2022/04/26 03:36:06;;;;;;;18.13;11.63;;;;;;;;;;5071659;28;19916;-63
2022/04/26 03:36:49;;;;;;;22.75;10.77;;;;;;;;;;5054259;28;20037;-62
2022/04/26 03:39:15;;;;;;;22.77;10.82;;;;;;;;;;5052964;28;20513;-63
2022/04/26 03:41:41;;;;;;;15.95;9.90;;;;;;;;;;5052339;28;20045;-62
2022/04/26 03:44:07;;;;;;;22.88;10.50;;;;;;;;;;5014539;28;20126;-63
2022/04/26 03:46:33;;;;;;;15.70;9.02;;;;;;;;;;5014656;28;20064;-62
2022/04/26 03:48:59;;;;;;;20.98;9.90;;;;;;;;;;5049564;28;20033;-62
2022/04/26 03:51:25;;;;;;;21.38;10.32;;;;;;;;;;5053036;28;20044;-62
2022/04/26 03:53:51;;;;;;;19.63;10.80;;;;;;;;;;5053674;28;20072;-63
2022/04/26 03:56:17;;;;;;;23.92;10.75;;;;;;;;;;5054110;28;20044;-62
2022/04/26 03:58:43;;;;;;;22.10;10.52;;;;;;;;;;5053729;28;20099;-63
2022/04/26 04:01:09;;;;;;;19.02;10.38;;;;;;;;;;5043624;28;20069;-62
2022/04/26 04:03:38;;;;;;;20.08;10.65;;;;;;;;;;5051001;28;20072;-63
2022/04/26 04:06:05;;;;;;;21.80;10.93;;;;;;;;;;5036066;28;20073;-62
2022/04/26 04:08:31;;;;;;;20.38;10.65;;;;;;;;;;5032917;28;20068;-62
2022/04/26 04:10:57;;;;;;;25.70;11.00;;;;;;;;;;5033649;28;20496;-62
2022/04/26 04:13:23;;;;;;;21.50;10.43;;;;;;;;;;5033714;28;20098;-62
2022/04/26 04:15:49;;;;;;;18.65;10.15;;;;;;;;;;5032632;28;20037;-63
2022/04/26 04:21:00;;;;;;;20.67;10.57;;;;;;;;;;5053535;28;20069;-62
2022/04/26 04:23:26;;;;;;;22.60;9.98;;;;;;;;;;5053572;28;20067;-63
2022/04/26 04:25:52;;;;;;;21.38;9.40;;;;;;;;;;5035653;28;20494;-62
2022/04/26 04:28:18;;;;;;;17.08;9.75;;;;;;;;;;5053111;28;20075;-63
2022/04/26 04:30:44;;;;;;;19.55;9.75;;;;;;;;;;5047040;28;20037;-62
2022/04/26 04:33:10;;;;;;;20.38;9.50;;;;;;;;;;5052834;28;20037;-62
2022/04/26 04:35:36;;;;;;;16.88;10.00;;;;;;;;;;5052887;28;20406;-63
2022/04/26 04:38:02;;;;;;;19.60;9.50;;;;;;;;;;5053010;28;20119;-62
2022/04/26 04:40:28;;;;;;;21.77;9.52;;;;;;;;;;5035532;28;20175;-62
2022/04/26 04:42:54;;;;;;;23.30;9.35;;;;;;;;;;5031781;28;20535;-63
2022/04/26 04:45:20;;;;;;;21.27;9.48;;;;;;;;;;5025317;28;20041;-62
2022/04/26 04:47:46;;;;;;;16.08;8.82;;;;;;;;;;5051994;28;20506;-63
2022/04/26 04:50:12;;;;;;;19.73;9.43;;;;;;;;;;5053067;28;20055;-63
2022/04/26 04:52:38;;;;;;;23.20;9.50;;;;;;;;;;5034673;28;20506;-63
2022/04/26 04:55:05;;;;;;;19.20;9.32;;;;;;;;;;5052945;28;20202;-63
2022/04/26 04:57:31;;;;;;;18.00;9.95;;;;;;;;;;5052028;28;20037;-63
2022/04/26 04:59:59;;;;;;;18.98;8.73;;;;;;;;;;5043793;28;20037;-63
2022/04/26 05:02:26;;;;;;;20.17;9.38;;;;;;;;;;5051906;28;20044;-63
2022/04/26 05:04:51;;;;;;;21.05;9.45;;;;;;;;;;5052550;28;20782;-63
2022/04/26 05:07:17;;;;;;;22.25;9.40;;;;;;;;;;5052428;28;20037;-63
2022/04/26 05:09:43;;;;;;;20.73;9.23;;;;;;;;;;5052325;28;20032;-63
2022/04/26 05:12:10;;;;;;;22.55;9.35;;;;;;;;;;5052458;28;20047;-63
2022/04/26 05:14:36;;;;;;;16.38;8.85;;;;;;;;;;5043805;28;20040;-63
2022/04/26 05:17:02;;;;;;;20.48;9.55;;;;;;;;;;5052059;28;20060;-63
2022/04/26 05:19:28;;;;;;;18.23;9.02;;;;;;;;;;5051982;28;20041;-63
2022/04/26 05:21:54;;;;;;;20.42;10.00;;;;;;;;;;5052310;28;20060;-63
2022/04/26 05:27:05;;;;;;;20.40;9.57;;;;;;;;;;5052319;28;20037;-63
2022/04/26 05:29:31;;;;;;;18.63;9.45;;;;;;;;;;5044832;28;20043;-63
2022/04/26 05:31:57;;;;;;;16.50;8.73;;;;;;;;;;5052322;28;20053;-63
2022/04/26 05:34:23;;;;;;;17.88;9.43;;;;;;;;;;5052027;28;20052;-63
2022/04/26 05:36:49;;;;;;;20.58;10.13;;;;;;;;;;5052243;28;20040;-63
2022/04/26 05:39:15;;;;;;;21.67;9.68;;;;;;;;;;5051350;28;20048;-63
2022/04/26 05:41:41;;;;;;;16.65;9.07;;;;;;;;;;5050461;28;20043;-62
2022/04/26 05:44:07;;;;;;;19.85;10.02;;;;;;;;;;5036289;28;20060;-63
2022/04/26 05:46:33;;;;;;;22.10;9.85;;;;;;;;;;5051506;28;20503;-63
2022/04/26 05:48:59;;;;;;;18.23;9.07;;;;;;;;;;5051276;28;20040;-63
2022/04/26 05:51:25;;;;;;;16.95;9.40;;;;;;;;;;5051968;28;20098;-63
2022/04/26 05:53:51;;;;;;;17.98;8.75;;;;;;;;;;5051718;28;20040;-63
2022/04/26 05:56:17;;;;;;;18.63;9.38;;;;;;;;;;5050199;28;20041;-63
2022/04/26 05:58:43;;;;;;;16.50;9.30;;;;;;;;;;5044226;28;20529;-63
2022/04/26 06:01:09;;;;;;;21.83;9.63;;;;;;;;;;5051513;28;20041;-63
2022/04/26 06:03:35;;;;;;;17.63;8.93;;;;;;;;;;5050676;28;20037;-63
2022/04/26 06:06:01;;;;;;;19.48;9.60;;;;;;;;;;5051773;28;20048;-63
2022/04/26 06:08:27;;;;;;;23.63;9.68;;;;;;;;;;5051126;28;20073;-63
2022/04/26 06:10:53;;;;;;;20.73;10.20;;;;;;;;;;5051711;28;20048;-63
2022/04/26 06:13:19;;;;;;;20.15;8.82;;;;;;;;;;5041103;28;20452;-63
2022/04/26 06:15:45;;;;;;;20.80;9.35;;;;;;;;;;5051542;28;20052;-63
2022/04/26 06:18:11;;;;;;;18.98;9.30;;;;;;;;;;5051019;28;20037;-63
2022/04/26 06:20:37;;;;;;;17.50;8.45;;;;;;;;;;5051109;28;20045;-63
2022/04/26 06:23:03;;;;;;;19.73;8.30;;;;;;;;;;5051220;28;20043;-63
2022/04/26 06:25:29;;;;;;;20.65;8.65;;;;;;;;;;5047636;28;20581;-62
2022/04/26 06:27:55;;;;;;;17.80;8.38;;;;;;;;;;5046366;28;20037;-62
2022/04/26 06:30:21;;;;;;;15.18;8.30;;;;;;;;;;5051583;28;20086;-63
2022/04/26 06:32:47;;;;;;;14.60;7.20;;;;;;;;;;5051490;28;20045;-63
2022/04/26 06:35:13;;;;;;;13.88;7.68;;;;;;;;;;5051315;28;20487;-63
2022/04/26 06:37:39;;;;;;;18.23;8.27;;;;;;;;;;5051066;28;20112;-63
2022/04/26 06:40:05;;;;;;;20.85;7.03;;;;;;;;;;5048728;28;20033;-63
2022/04/26 06:42:31;;;;;;;14.10;7.22;;;;;;;;;;5043735;28;20039;-63
2022/04/26 06:44:57;;;;;;;16.27;7.95;;;;;;;;;;5051043;28;20120;-63
2022/04/26 06:47:23;;;;;;;18.67;7.90;;;;;;;;;;5051095;28;20037;-63
2022/04/26 06:49:49;;;;;;;15.48;7.63;;;;;;;;;;5051175;28;20530;-63
2022/04/26 06:52:15;;;;;;;14.38;8.00;;;;;;;;;;5051309;28;20418;-63
2022/04/26 06:54:41;;;;;;;17.50;8.02;;;;;;;;;;5040416;28;20037;-63
2022/04/26 06:57:08;;;;;;;17.17;8.00;;;;;;;;;;5030144;28;20040;-63
2022/04/26 06:59:34;;;;;;;20.48;7.45;;;;;;;;;;5050831;28;20040;-63
2022/04/26 07:02:00;;;;;;;23.27;7.68;;;;;;;;;;5051236;28;20048;-63
2022/04/26 07:04:26;;;;;;;17.75;7.30;;;;;;;;;;5051268;28;20041;-63
2022/04/26 07:06:52;;;;;;;13.68;7.82;;;;;;;;;;5051220;28;20418;-63
2022/04/26 07:09:19;;;;;;;16.52;7.78;;;;;;;;;;5050802;28;20103;-63
2022/04/26 07:11:46;;;;;;;14.38;6.75;;;;;;;;;;5043103;28;20043;-63
2022/04/26 07:14:12;;;;;;;11.93;7.88;;;;;;;;;;5052975;28;20049;-63
2022/04/26 07:16:39;;;;;;;14.38;7.38;;;;;;;;;;5054715;28;20414;-63
2022/04/26 07:19:05;;;;;;;12.30;6.85;;;;;;;;;;5066143;22;20548;-62
2022/04/26 07:21:31;;;;;;;13.07;6.55;;;;;;;;;;5054079;28;20402;-62
2022/04/26 07:23:57;;;;;;;19.65;7.68;;;;;;;;;;5053227;28;20041;-62
2022/04/26 07:26:23;;;;;;;15.77;7.20;;;;;;;;;;5054026;28;20047;-62
2022/04/26 07:28:49;;;;;;;14.07;7.68;;;;;;;;;;5036241;28;20036;-62
2022/04/26 07:31:15;;;;;;;14.68;6.88;;;;;;;;;;5054605;28;20456;-62
2022/04/26 07:36:26;;;;;;;12.23;7.47;;;;;;;;;;5054200;28;20495;-62
2022/04/26 07:38:52;;;;;;;13.98;7.53;;;;;;;;;;5047517;28;20037;-62
2022/04/26 07:41:18;;;;;;;14.50;6.97;;;;;;;;;;5034783;28;20494;-62
2022/04/26 07:43:44;;;;;;;15.30;6.88;;;;;;;;;;5036020;28;20106;-62
2022/04/26 07:46:13;;;;;;;11.93;6.38;;;;;;;;;;5034146;28;20091;-62
2022/04/26 07:48:41;;;;;;;10.32;5.88;;;;;;;;;;5033626;28;20041;-62
2022/04/26 07:51:08;;;;;;;13.73;5.75;;;;;;;;;;5034212;28;20037;-62
2022/04/26 07:53:35;;;;;;;10.50;5.82;;;;;;;;;;5036557;28;20557;-62
2022/04/26 07:56:01;;;;;;;22.48;6.25;;;;;;;;;;5035835;28;20037;-62
2022/04/26 07:58:27;;;;;;;12.05;5.43;;;;;;;;;;5053394;28;20033;-62
2022/04/26 08:00:53;;;;;;;13.15;5.80;;;;;;;;;;5053333;28;20047;-62
2022/04/26 08:03:20;;;;;;;10.43;5.45;;;;;;;;;;5035878;28;20049;-62
2022/04/26 08:05:46;;;;;;;9.68;4.95;;;;;;;;;;5053776;28;20098;-62
2022/04/26 08:08:12;;;;;;;14.07;5.88;;;;;;;;;;5026016;28;20060;-62
2022/04/26 08:10:38;;;;;;;13.25;5.95;;;;;;;;;;5045589;28;20044;-62
2022/04/26 08:13:05;;;;;;;12.43;6.03;;;;;;;;;;5053615;28;20032;-62
2022/04/26 08:15:31;;;;;;;12.50;6.13;;;;;;;;;;5053559;28;20102;-62
2022/04/26 08:17:57;;;;;;;12.85;5.68;;;;;;;;;;5052708;28;20482;-63
2022/04/26 08:20:24;;;;;;;9.65;5.20;;;;;;;;;;5053097;28;20166;-62
2022/04/26 08:22:50;;;;;;;14.23;6.47;;;;;;;;;;5046184;28;20103;-62
2022/04/26 08:28:04;;;;;;;12.05;5.07;;;;;;;;;;5052978;28;20045;-62
2022/04/26 08:30:30;;;;;;;11.55;5.13;;;;;;;;;;5053278;28;20395;-62
2022/04/26 08:32:56;;;;;;;9.45;4.75;;;;;;;;;;5034756;28;20045;-62
2022/04/26 08:35:24;;;;;;;14.75;5.22;;;;;;;;;;5052620;28;20069;-62
2022/04/26 08:37:50;;;;;;;11.23;4.38;;;;;;;;;;5044159;28;20098;-62
2022/04/26 08:40:16;;;;;;;6.80;4.20;;;;;;;;;;5053017;28;20032;-62
2022/04/26 08:42:46;;;;;;;11.05;4.53;;;;;;;;;;5043448;28;20534;-62
2022/04/26 08:45:13;;;;;;;9.35;4.80;;;;;;;;;;5033050;28;20044;-62
2022/04/26 08:53:10;;;;;;;7.13;4.07;;;;;;;;;;5047744;28;20037;-62
2022/04/26 08:55:41;;;;;;;9.65;4.47;;;;;;;;;;5052469;28;20049;-62
2022/04/26 08:58:10;;;;;;;9.18;4.78;;;;;;;;;;5052337;28;20048;-62
2022/04/26 09:00:37;;;;;;;9.60;4.50;;;;;;;;;;5052911;28;20448;-62
2022/04/26 09:03:07;;;;;;;7.10;3.75;;;;;;;;;;5034785;28;20045;-62
2022/04/26 09:05:34;;;;;;;7.13;3.88;;;;;;;;;;5046252;28;20038;-61
2022/04/26 09:08:00;;;;;;;6.55;4.03;;;;;;;;;;5048302;28;20037;-62
2022/04/26 09:10:29;;;;;;;9.77;4.03;;;;;;;;;;5052032;28;20486;-62
2022/04/26 09:12:59;;;;;;;7.65;4.50;;;;;;;;;;5052716;28;20048;-62
2022/04/26 09:15:25;;;;;;;8.88;4.63;;;;;;;;;;5052407;28;20088;-62
2022/04/26 09:17:52;;;;;;;7.50;4.10;;;;;;;;;;5052158;28;20041;-62
2022/04/26 09:20:38;;;;;;;10.85;4.22;;;;;;;;;;5025376;28;20116;-62
2022/04/26 09:23:14;;;;;;;7.10;3.95;;;;;;;;;;5051457;28;20545;-62
2022/04/26 09:25:39;;;;;;;5.90;3.92;;;;;;;;;;5052232;28;20072;-62
2022/04/26 09:28:06;;;;;;;7.70;4.05;;;;;;;;;;5033983;28;20153;-62
2022/04/26 09:30:32;;;;;;;32.03;5.65;;;;;;;;;;5052273;28;20076;-62
2022/04/26 09:32:58;;;;;;;6.25;3.22;;;;;;;;;;5028653;28;20131;-62
2022/04/26 09:35:28;;;;;;;6.55;3.20;;;;;;;;;;5050919;28;20041;-62
2022/04/26 09:37:54;;;;;;;7.25;4.13;;;;;;;;;;5051070;28;20478;-62
2022/04/26 09:40:20;;;;;;;10.25;4.05;;;;;;;;;;5051771;28;20039;-62
2022/04/26 09:42:50;;;;;;;11.77;4.00;;;;;;;;;;5042347;28;20041;-62
2022/04/26 09:45:17;;;;;;;10.20;4.28;;;;;;;;;;5031597;28;20041;-62
2022/04/26 09:47:44;;;;;;;10.95;4.10;;;;;;;;;;5018379;28;20041;-62
2022/04/26 09:50:14;;;;;;;11.05;3.75;;;;;;;;;;5050751;28;20116;-62
2022/04/26 09:52:40;;;;;;;9.55;4.50;;;;;;;;;;5052116;28;20045;-62
2022/04/26 09:55:07;;;;;;;9.30;4.65;;;;;;;;;;5051906;28;20045;-62
2022/04/26 09:57:33;;;;;;;24.65;4.93;;;;;;;;;;5033186;28;20048;-62
2022/04/26 10:00:00;;;;;;;7.40;3.67;;;;;;;;;;5051392;28;20059;-62
2022/04/26 10:02:31;;;;;;;21.27;4.80;;;;;;;;;;5040681;28;20051;-62
2022/04/26 10:04:59;;;;;;;7.45;3.83;;;;;;;;;;5047555;28;20055;-62
2022/04/26 10:07:26;;;;;;;10.45;3.63;;;;;;;;;;5051585;28;20052;-62
2022/04/26 10:09:54;;;;;;;8.88;3.22;;;;;;;;;;5051625;28;20129;-62
2022/04/26 10:12:21;;;;;;;8.73;3.38;;;;;;;;;;5043231;28;20045;-62
2022/04/26 10:14:48;;;;;;;5.65;3.80;;;;;;;;;;5033400;28;20044;-62
2022/04/26 10:17:19;;;;;;;8.25;3.90;;;;;;;;;;5051381;28;20044;-62
2022/04/26 10:19:45;;;;;;;5.70;3.70;;;;;;;;;;5051487;28;20395;-62
2022/04/26 10:22:15;;;;;;;8.82;4.32;;;;;;;;;;5051289;28;20283;-62
2022/04/26 10:24:48;;;;;;;8.80;4.00;;;;;;;;;;5050551;28;20051;-63
2022/04/26 10:27:17;;;;;;;8.30;4.00;;;;;;;;;;5041157;28;20033;-62
2022/04/26 10:29:46;;;;;;;7.95;3.97;;;;;;;;;;5050455;28;20045;-62
2022/04/26 10:32:28;;;;;;;6.70;4.07;;;;;;;;;;5017203;28;20052;-62
2022/04/26 10:34:54;;;;;;;8.40;4.10;;;;;;;;;;5051259;28;20056;-62
2022/04/26 10:37:20;;;;;;;11.00;3.90;;;;;;;;;;5051282;28;20037;-62
2022/04/26 10:39:51;;;;;;;9.05;4.35;;;;;;;;;;5024235;28;20037;-62
2022/04/26 10:42:20;;;;;;;8.45;3.88;;;;;;;;;;5043566;28;20041;-62
2022/04/26 10:44:46;;;;;;;8.65;3.83;;;;;;;;;;5031297;28;20423;-62
2022/04/26 10:47:14;;;;;;;6.05;3.67;;;;;;;;;;5031171;28;20499;-62
2022/04/26 10:49:40;;;;;;;8.45;4.05;;;;;;;;;;5017255;28;20077;-62
2022/04/26 10:52:17;;;;;;;8.10;4.18;;;;;;;;;;5017197;28;20046;-62
2022/04/26 10:54:51;;;;;;;12.40;4.82;;;;;;;;;;5039358;28;20040;-62
2022/04/26 10:57:26;;;;;;;11.23;3.92;;;;;;;;;;5054606;28;20108;-62
2022/04/26 10:59:56;;;;;;;10.35;4.00;;;;;;;;;;5054851;28;20519;-62
2022/04/26 11:02:23;;;;;;;8.68;3.90;;;;;;;;;;5054681;28;20589;-62
2022/04/26 11:04:59;;;;;;;9.98;4.20;;;;;;;;;;5054591;28;20072;-62
2022/04/26 11:07:27;;;;;;;7.75;4.03;;;;;;;;;;5054262;28;20037;-62
2022/04/26 11:09:54;;;;;;;6.72;4.15;;;;;;;;;;5050837;28;20051;-62
2022/04/26 11:12:20;;;;;;;7.57;4.00;;;;;;;;;;5054321;28;20112;-62
2022/04/26 11:14:47;;;;;;;24.17;4.00;;;;;;;;;;5054836;28;20041;-62
2022/04/26 11:17:14;;;;;;;9.18;3.78;;;;;;;;;;5054325;28;20044;-62
2022/04/26 11:19:47;;;;;;;7.40;4.03;;;;;;;;;;5053884;28;20059;-62
2022/04/26 11:22:13;;;;;;;5.70;3.88;;;;;;;;;;5054187;28;20544;-62
2022/04/26 11:30:10;;;;;;;7.43;3.50;;;;;;;;;;5053837;28;20045;-62
2022/04/26 11:32:43;;;;;;;17.25;4.40;;;;;;;;;;5054286;28;20122;-62
2022/04/26 11:35:14;;;;;;;6.45;3.90;;;;;;;;;;5054340;28;20037;-62
2022/04/26 11:37:47;;;;;;;6.38;3.35;;;;;;;;;;5026959;28;20096;-62
2022/04/26 11:40:21;;;;;;;7.53;3.45;;;;;;;;;;5052019;28;20037;-62
2022/04/26 11:42:47;;;;;;;8.25;3.47;;;;;;;;;;5043762;28;20029;-62
2022/04/26 11:45:13;;;;;;;6.13;3.47;;;;;;;;;;5034490;28;20179;-62
2022/04/26 11:47:49;;;;;;;9.35;4.47;;;;;;;;;;5034029;28;20523;-62
2022/04/26 11:50:33;;;;;;;7.15;3.42;;;;;;;;;;5016740;28;20041;-62
2022/04/26 11:53:01;;;;;;;6.47;3.70;;;;;;;;;;5023594;28;20037;-62
2022/04/26 11:55:27;;;;;;;7.35;3.65;;;;;;;;;;5035963;28;20506;-62
2022/04/26 11:57:54;;;;;;;6.53;3.35;;;;;;;;;;5053787;28;20048;-62
2022/04/26 12:00:21;;;;;;;8.05;3.60;;;;;;;;;;5035646;28;20067;-62
2022/04/26 12:02:47;;;;;;;8.55;3.88;;;;;;;;;;5053804;28;20487;-62
2022/04/26 12:05:14;;;;;;;6.38;4.00;;;;;;;;;;5053883;28;20076;-62
2022/04/26 12:07:40;;;;;;;6.30;3.60;;;;;;;;;;5048757;28;20091;-62
2022/04/26 12:10:25;;;;;;;8.88;3.97;;;;;;;;;;5053683;28;20082;-62
2022/04/26 12:12:56;;;;;;;6.63;3.42;;;;;;;;;;5053663;28;20496;-62
2022/04/26 12:15:26;;;;;;;6.75;3.03;;;;;;;;;;5035906;28;20178;-62
2022/04/26 12:18:09;;;;;;;6.50;3.90;;;;;;;;;;5053309;28;20032;-62
2022/04/26 12:20:36;;;;;;;8.35;3.92;;;;;;;;;;5045669;28;20029;-62
2022/04/26 12:23:03;;;;;;;13.23;4.38;;;;;;;;;;5050042;28;20033;-62
2022/04/26 12:25:29;;;;;;;7.40;3.58;;;;;;;;;;5035843;28;20041;-62
2022/04/26 12:28:03;;;;;;;9.32;3.42;;;;;;;;;;5034612;28;20139;-62
2022/04/26 12:30:29;;;;;;;7.38;3.40;;;;;;;;;;5053310;28;20083;-62
2022/04/26 12:32:55;;;;;;;6.85;3.83;;;;;;;;;;5053471;28;20390;-62
2022/04/26 12:35:21;;;;;;;6.90;3.95;;;;;;;;;;5047999;28;20045;-62
2022/04/26 12:38:02;;;;;;;7.90;3.80;;;;;;;;;;5035100;28;20037;-62
2022/04/26 12:40:28;;;;;;;6.32;3.33;;;;;;;;;;5053191;28;20103;-63
2022/04/26 12:42:57;;;;;;;6.53;3.30;;;;;;;;;;5042050;28;20491;-63
2022/04/26 12:45:23;;;;;;;5.72;3.15;;;;;;;;;;5015042;28;20057;-63
2022/04/26 12:50:54;;;;;;;6.55;3.35;;;;;;;;;;5047134;28;20048;-62
2022/04/26 12:53:32;;;;;;;6.68;3.05;;;;;;;;;;5052245;28;20498;-62
2022/04/26 12:56:06;;;;;;;4.20;2.72;;;;;;;;;;5052961;28;20045;-63
2022/04/26 12:58:37;;;;;;;6.53;2.72;;;;;;;;;;5052046;28;20487;-63
2022/04/26 13:01:04;;;;;;;5.70;2.80;;;;;;;;;;5034658;28;20086;-63
2022/04/26 13:03:30;;;;;;;6.93;3.60;;;;;;;;;;5051917;28;20045;-63
2022/04/26 13:06:12;;;;;;;4.82;3.40;;;;;;;;;;5029913;28;20048;-63
2022/04/26 13:08:39;;;;;;;4.82;2.92;;;;;;;;;;5012039;28;20531;-63
2022/04/26 13:11:05;;;;;;;9.18;3.67;;;;;;;;;;4994211;28;20056;-62
2022/04/26 13:13:32;;;;;;;4.05;2.88;;;;;;;;;;5012601;28;20078;-63
2022/04/26 13:15:59;;;;;;;8.27;3.38;;;;;;;;;;5012747;28;20100;-63
2022/04/26 13:18:25;;;;;;;5.18;2.85;;;;;;;;;;5019684;28;20511;-63
2022/04/26 13:20:54;;;;;;;4.75;2.85;;;;;;;;;;5052222;28;20502;-63
2022/04/26 13:23:20;;;;;;;3.92;3.03;;;;;;;;;;5052103;28;20043;-63
2022/04/26 13:25:46;;;;;;;5.82;2.83;;;;;;;;;;5052582;28;20045;-63
2022/04/26 13:28:12;;;;;;;4.90;3.33;;;;;;;;;;5051932;28;20044;-63
2022/04/26 13:30:38;;;;;;;8.55;2.88;;;;;;;;;;5034675;28;20053;-62
2022/04/26 13:33:05;;;;;;;4.82;3.13;;;;;;;;;;5045394;28;20045;-63
2022/04/26 13:35:31;;;;;;;5.32;3.25;;;;;;;;;;5038114;28;20470;-62
2022/04/26 13:37:58;;;;;;;5.28;3.05;;;;;;;;;;5037956;28;20029;-63
2022/04/26 13:40:24;;;;;;;8.23;3.10;;;;;;;;;;5033851;28;20037;-62
2022/04/26 13:42:51;;;;;;;5.68;3.22;;;;;;;;;;5034298;28;20041;-63
2022/04/26 13:45:17;;;;;;;5.50;2.90;;;;;;;;;;5012323;28;20042;-63
2022/04/26 13:47:45;;;;;;;4.93;3.00;;;;;;;;;;5012457;28;20056;-63
2022/04/26 13:50:11;;;;;;;6.00;2.80;;;;;;;;;;5027633;28;20042;-62
2022/04/26 13:52:38;;;;;;;4.32;2.55;;;;;;;;;;5046189;28;20558;-63
2022/04/26 13:55:04;;;;;;;8.35;3.30;;;;;;;;;;5051881;28;20111;-63
2022/04/26 13:57:30;;;;;;;6.93;3.35;;;;;;;;;;5051450;28;20459;-63
2022/04/26 13:59:56;;;;;;;6.13;3.78;;;;;;;;;;5036926;28;20061;-63
2022/04/26 14:02:22;;;;;;;5.68;3.10;;;;;;;;;;5037298;28;20119;-63
2022/04/26 14:04:49;;;;;;;5.13;3.30;;;;;;;;;;5023888;28;20042;-63
2022/04/26 14:07:15;;;;;;;11.10;3.58;;;;;;;;;;5028093;28;20052;-63
2022/04/26 14:09:41;;;;;;;4.07;2.70;;;;;;;;;;5046802;28;20522;-63
2022/04/26 14:12:08;;;;;;;5.88;3.28;;;;;;;;;;5051215;28;20123;-63
2022/04/26 14:22:49;;;;;;;4.82;2.97;;;;;;;;;;5047005;28;20041;-62
2022/04/26 14:25:15;;;;;;;6.78;2.90;;;;;;;;;;5037240;28;20048;-62
2022/04/26 14:27:42;;;;;;;6.30;3.58;;;;;;;;;;5035321;28;20052;-62
2022/04/26 14:30:09;;;;;;;5.97;2.90;;;;;;;;;;5007447;28;20510;-63
2022/04/26 14:32:35;;;;;;;4.90;2.75;;;;;;;;;;5034016;28;20040;-62
2022/04/26 14:35:02;;;;;;;4.68;2.70;;;;;;;;;;5049682;28;20076;-62
2022/04/26 14:37:28;;;;;;;6.88;3.15;;;;;;;;;;5055072;28;20521;-62
2022/04/26 14:39:54;;;;;;;6.35;3.00;;;;;;;;;;5047771;28;20420;-62
2022/04/26 14:42:24;;;;;;;5.32;2.78;;;;;;;;;;5030888;28;20088;-62
2022/04/26 14:44:49;;;;;;;9.32;3.40;;;;;;;;;;5035519;28;20041;-62
2022/04/26 14:47:15;;;;;;;4.88;3.05;;;;;;;;;;5017518;28;20046;-62
2022/04/26 14:49:42;;;;;;;4.80;3.03;;;;;;;;;;5030093;28;20040;-62
2022/04/26 14:52:08;;;;;;;5.05;2.63;;;;;;;;;;5032324;28;20487;-62
2022/04/26 14:54:34;;;;;;;7.50;2.53;;;;;;;;;;5041478;28;20090;-62
2022/04/26 14:57:00;;;;;;;4.57;2.75;;;;;;;;;;5013272;28;20052;-62
2022/04/26 14:59:26;;;;;;;5.32;2.83;;;;;;;;;;5040784;28;20223;-62
2022/04/26 15:01:53;;;;;;;4.50;2.60;;;;;;;;;;5022300;28;20572;-63
2022/04/26 15:04:20;;;;;;;5.05;2.92;;;;;;;;;;5014136;28;20050;-62
2022/04/26 15:06:47;;;;;;;5.18;3.00;;;;;;;;;;5048070;28;20043;-62
2022/04/26 15:17:49;;;;;;;4.60;2.50;;;;;;;;;;5030519;28;20498;-63
2022/04/26 15:20:16;;;;;;;4.20;2.55;;;;;;;;;;5019313;28;20087;-62
2022/04/26 15:22:42;;;;;;;3.05;2.20;;;;;;;;;;5042117;28;20033;-63
2022/04/26 15:25:09;;;;;;;4.68;2.65;;;;;;;;;;5039075;28;20038;-63
2022/04/26 15:27:38;;;;;;;6.93;2.65;;;;;;;;;;5025133;28;20506;-62
2022/04/26 15:30:04;;;;;;;7.07;3.00;;;;;;;;;;5032475;28;20052;-62
2022/04/26 15:32:30;;;;;;;4.85;2.80;;;;;;;;;;5035129;28;20119;-65
2022/04/26 15:34:56;;;;;;;3.95;2.38;;;;;;;;;;5023911;28;20128;-65
2022/04/26 15:37:24;;;;;;;3.60;2.47;;;;;;;;;;5039655;28;20044;-64
2022/04/26 15:39:50;;;;;;;5.03;2.80;;;;;;;;;;5021825;28;20041;-65
2022/04/26 15:42:18;;;;;;;5.30;2.83;;;;;;;;;;5041306;28;20581;-64
2022/04/26 15:44:44;;;;;;;6.43;2.85;;;;;;;;;;5041006;28;20045;-64
2022/04/26 15:47:10;;;;;;;5.43;2.70;;;;;;;;;;5030748;28;20041;-64
2022/04/26 15:49:36;;;;;;;5.85;2.70;;;;;;;;;;4997743;28;20103;-64
2022/04/26 15:52:02;;;;;;;5.05;2.80;;;;;;;;;;5029708;28;20124;-64
2022/04/26 15:54:28;;;;;;;5.03;3.00;;;;;;;;;;5037633;28;20072;-64
2022/04/26 15:56:54;;;;;;;6.00;2.70;;;;;;;;;;5027454;28;20078;-64
2022/04/26 15:59:20;;;;;;;4.55;3.15;;;;;;;;;;5046784;28;20402;-64
2022/04/26 16:01:46;;;;;;;4.32;3.00;;;;;;;;;;5053825;28;20116;-64
2022/04/26 16:04:13;;;;;;;6.28;3.17;;;;;;;;;;5031876;28;20040;-64
2022/04/26 16:06:39;;;;;;;6.05;2.70;;;;;;;;;;5031135;28;20044;-64
2022/04/26 16:22:53;;;;;;;6.18;2.97;;;;;;;;;;5040267;28;20049;-64
2022/04/26 16:25:19;;;;;;;4.72;2.95;;;;;;;;;;5044485;28;20044;-64
2022/04/26 16:27:48;;;;;;;7.25;3.30;;;;;;;;;;5049280;28;20119;-64
2022/04/26 16:30:14;;;;;;;4.50;3.03;;;;;;;;;;5043144;28;20033;-64
2022/04/26 16:32:41;;;;;;;7.30;3.17;;;;;;;;;;5046119;28;20120;-64
2022/04/26 16:35:07;;;;;;;5.38;2.95;;;;;;;;;;5035258;28;20072;-64
2022/04/26 16:37:33;;;;;;;5.53;3.20;;;;;;;;;;5045805;28;20033;-64
2022/04/26 16:39:59;;;;;;;4.88;3.15;;;;;;;;;;5037046;28;20069;-64
2022/04/26 16:42:25;;;;;;;4.65;2.80;;;;;;;;;;5046389;28;20071;-64
2022/04/26 16:44:51;;;;;;;6.25;3.42;;;;;;;;;;5040007;28;20047;-64
2022/04/26 16:47:17;;;;;;;6.57;3.22;;;;;;;;;;5036301;28;20504;-64
2022/04/26 16:49:43;;;;;;;5.63;3.20;;;;;;;;;;5047920;28;20036;-64
2022/04/26 16:52:09;;;;;;;6.75;3.30;;;;;;;;;;5048186;28;20045;-64
2022/04/26 16:54:35;;;;;;;6.78;2.90;;;;;;;;;;5038657;28;20455;-65
2022/04/26 16:57:01;;;;;;;7.80;3.30;;;;;;;;;;5041008;28;20037;-64
2022/04/26 16:59:29;;;;;;;6.32;3.22;;;;;;;;;;5013498;28;20124;-65
2022/04/26 17:01:55;;;;;;;6.60;3.10;;;;;;;;;;5021016;28;20045;-64
2022/04/26 17:04:22;;;;;;;8.18;3.38;;;;;;;;;;5030062;28;20415;-64
2022/04/26 17:06:49;;;;;;;5.22;3.30;;;;;;;;;;5046526;28;20032;-64
2022/04/26 17:09:16;;;;;;;6.93;3.47;;;;;;;;;;5050541;28;20403;-64
2022/04/26 17:11:42;;;;;;;7.75;3.22;;;;;;;;;;5026217;28;20464;-64
2022/04/26 17:14:12;;;;;;;5.35;3.05;;;;;;;;;;5009966;28;20491;-64
2022/04/26 17:16:39;;;;;;;6.60;3.17;;;;;;;;;;5043607;28;20124;-64
2022/04/26 17:19:05;;;;;;;6.43;3.25;;;;;;;;;;5048075;28;20070;-65
2022/04/26 17:21:32;;;;;;;15.73;3.35;;;;;;;;;;5034381;28;20033;-64
2022/04/26 17:23:58;;;;;;;6.70;3.17;;;;;;;;;;5033714;28;20042;-64
2022/04/26 17:26:24;;;;;;;11.30;3.35;;;;;;;;;;5042930;28;21715;-64
2022/04/26 17:28:50;;;;;;;6.97;3.40;;;;;;;;;;5045035;28;20036;-64
2022/04/26 17:31:16;;;;;;;6.70;3.42;;;;;;;;;;5034522;28;20048;-64
2022/04/26 17:33:42;;;;;;;7.18;3.10;;;;;;;;;;5028168;28;20037;-64
2022/04/26 17:36:09;;;;;;;5.78;3.30;;;;;;;;;;5041839;28;20520;-64
2022/04/26 17:38:35;;;;;;;6.65;2.97;;;;;;;;;;5036953;28;20115;-65
2022/04/26 17:41:01;;;;;;;7.32;2.70;;;;;;;;;;5036379;28;20033;-64
2022/04/26 17:43:27;;;;;;;5.00;3.28;;;;;;;;;;5047661;28;20041;-64
2022/04/26 17:45:53;;;;;;;7.70;3.05;;;;;;;;;;5042858;28;20120;-64
2022/04/26 17:48:19;;;;;;;3.60;2.50;;;;;;;;;;5026193;28;20128;-64
2022/04/26 17:50:45;;;;;;;6.38;3.10;;;;;;;;;;5032864;28;20044;-64
2022/04/26 17:58:41;;;;;;;7.55;3.20;;;;;;;;;;5020035;28;20041;-64
2022/04/26 18:01:07;;;;;;;10.50;3.55;;;;;;;;;;5017907;28;20042;-64
2022/04/26 18:03:33;;;;;;;5.65;3.22;;;;;;;;;;5043478;28;20120;-64
2022/04/26 18:05:59;;;;;;;7.00;3.08;;;;;;;;;;5035642;28;20187;-64
2022/04/26 18:08:25;;;;;;;7.78;3.30;;;;;;;;;;5031096;28;20044;-64
2022/04/26 18:10:52;;;;;;;6.07;3.42;;;;;;;;;;5031264;28;20038;-64
2022/04/26 18:13:18;;;;;;;7.47;3.75;;;;;;;;;;5037511;28;20465;-64
2022/04/26 18:15:44;;;;;;;6.45;3.42;;;;;;;;;;5024346;28;20042;-63
2022/04/26 18:18:10;;;;;;;8.32;3.47;;;;;;;;;;5011740;28;20463;-63
2022/04/26 18:20:36;;;;;;;7.97;4.50;;;;;;;;;;5018012;28;20107;-63
2022/04/26 18:23:02;;;;;;;7.45;3.75;;;;;;;;;;5024899;28;20452;-64
2022/04/26 18:28:15;;;;;;;9.23;4.57;;;;;;;;;;5027890;28;21640;-64
2022/04/26 18:30:41;;;;;;;10.43;4.32;;;;;;;;;;5028450;28;20135;-64
2022/04/26 18:33:08;;;;;;;7.20;4.53;;;;;;;;;;5026203;28;20080;-64
2022/04/26 18:35:33;;;;;;;6.72;3.90;;;;;;;;;;5030165;28;20048;-64
2022/04/26 18:37:59;;;;;;;9.43;4.50;;;;;;;;;;5024405;28;20041;-63
2022/04/26 18:40:26;;;;;;;8.50;4.00;;;;;;;;;;5022252;28;20067;-64
2022/04/26 18:42:52;;;;;;;6.70;3.88;;;;;;;;;;5026747;28;20053;-64
2022/04/26 18:45:22;;;;;;;9.75;4.10;;;;;;;;;;5022496;28;20041;-64
2022/04/26 18:47:48;;;;;;;5.63;3.65;;;;;;;;;;5030208;28;20083;-63
2022/04/26 18:50:14;;;;;;;9.52;4.10;;;;;;;;;;5038250;28;20446;-64
2022/04/26 18:52:39;;;;;;;5.53;3.88;;;;;;;;;;5037923;28;20041;-63
2022/04/26 18:55:06;;;;;;;7.28;4.40;;;;;;;;;;5025955;28;20034;-63
2022/04/26 18:57:32;;;;;;;4.30;3.30;;;;;;;;;;5025025;28;20041;-64
2022/04/26 18:59:58;;;;;;;6.95;4.05;;;;;;;;;;5033251;28;20043;-64
2022/04/26 19:02:24;;;;;;;6.53;3.60;;;;;;;;;;5050052;28;20623;-64
2022/04/26 19:04:50;;;;;;;17.60;4.28;;;;;;;;;;5030981;28;20038;-64
2022/04/26 19:07:16;;;;;;;5.72;4.05;;;;;;;;;;5030534;28;20033;-64
2022/04/26 19:12:27;;;;;;;5.25;3.72;;;;;;;;;;5023164;28;20034;-64
2022/04/26 19:14:53;;;;;;;6.43;3.60;;;;;;;;;;5047330;28;20048;-64